sensor_id;sensor_type;location;lat;lon;timestamp;P1;P2;P0
64229;PMS5003;50547;49.498;0.092;2023-11-22T16:34:13;2;2;
64229;PMS5003;50547;49.498;0.092;2023-11-22T16:36:43;3;3;
64229;PMS5003;50547;49.498;0.092;2023-11-22T16:39:12;2;2;
64229;PMS5003;50547;49.498;0.092;2023-11-22T16:41:41;2;2;
64229;PMS5003;50547;49.498;0.092;2023-11-22T16:44:10;2;2;
64229;PMS5003;50547;49.498;0.092;2023-11-22T16:46:39;3;3;
64229;PMS5003;50547;49.498;0.092;2023-11-22T16:49:09;2;2;
64229;PMS5003;50547;49.498;0.092;2023-11-22T16:51:38;3;3;
64229;PMS5003;50547;49.498;0.092;2023-11-22T16:54:07;2;2;
64229;PMS5003;50547;49.498;0.092;2023-11-22T16:56:36;2;2;
64229;PMS5003;50547;49.498;0.092;2023-11-22T16:59:05;2;2;
64229;PMS5003;50547;49.498;0.092;2023-11-22T17:01:34;3;3;
64229;PMS5003;50547;49.498;0.092;2023-11-22T17:04:04;2;2;
64229;PMS5003;50547;49.498;0.092;2023-11-22T17:06:33;2;2;
64229;PMS5003;50547;49.498;0.092;2023-11-22T17:09:00;6;6;
64229;PMS5003;50547;49.498;0.092;2023-11-22T17:11:29;3;3;
64229;PMS5003;50547;49.498;0.092;2023-11-22T17:14:05;2;2;
64229;PMS5003;50547;49.498;0.092;2023-11-22T17:16:39;4;4;
64229;PMS5003;50547;49.498;0.092;2023-11-22T17:19:08;2;2;
64229;PMS5003;50547;49.498;0.092;2023-11-22T17:21:38;2;2;
64229;PMS5003;50547;49.498;0.092;2023-11-22T17:24:07;2;2;
64229;PMS5003;50547;49.498;0.092;2023-11-22T17:26:37;2;2;
64229;PMS5003;50547;49.498;0.092;2023-11-22T17:29:06;2;2;
64229;PMS5003;50547;49.498;0.092;2023-11-22T17:31:35;2;2;
64229;PMS5003;50547;49.498;0.092;2023-11-22T17:34:04;2;2;
64229;PMS5003;50547;49.498;0.092;2023-11-22T17:36:33;2;2;
64229;PMS5003;50547;49.498;0.092;2023-11-22T17:39:03;2;2;
64229;PMS5003;50547;49.498;0.092;2023-11-22T17:41:32;2;2;
64229;PMS5003;50547;49.498;0.092;2023-11-22T17:44:01;2;2;
64229;PMS5003;50547;49.498;0.092;2023-11-22T17:46:27;2;2;
64229;PMS5003;50547;49.498;0.092;2023-11-22T17:48:56;2;2;
64229;PMS5003;50547;49.498;0.092;2023-11-22T17:51:25;2;2;
64229;PMS5003;50547;49.498;0.092;2023-11-22T17:53:54;2;2;
64229;PMS5003;50547;49.498;0.092;2023-11-22T17:56:20;3;3;
64229;PMS5003;50547;49.498;0.092;2023-11-22T17:58:47;2;2;
64229;PMS5003;50547;49.498;0.092;2023-11-22T18:01:16;2;2;
64229;PMS5003;50547;49.498;0.092;2023-11-22T18:03:45;3;3;
64229;PMS5003;50547;49.498;0.092;2023-11-22T18:06:14;2;2;
64229;PMS5003;50547;49.498;0.092;2023-11-22T18:08:43;2;2;
64229;PMS5003;50547;49.498;0.092;2023-11-22T18:11:12;3;3;
64229;PMS5003;50547;49.498;0.092;2023-11-22T18:13:41;2;2;
64229;PMS5003;50547;49.498;0.092;2023-11-22T18:16:10;2;2;
64229;PMS5003;50547;49.498;0.092;2023-11-22T18:18:39;2;2;
64229;PMS5003;50547;49.498;0.092;2023-11-22T18:21:08;2;2;
64229;PMS5003;50547;49.498;0.092;2023-11-22T18:23:37;3;3;
64229;PMS5003;50547;49.498;0.092;2023-11-22T18:26:06;2;2;
64229;PMS5003;50547;49.498;0.092;2023-11-22T18:28:36;2;2;
64229;PMS5003;50547;49.498;0.092;2023-11-22T18:31:05;2;2;
64229;PMS5003;50547;49.498;0.092;2023-11-22T18:33:34;2;2;
64229;PMS5003;50547;49.498;0.092;2023-11-22T18:36:04;2;2;
64229;PMS5003;50547;49.498;0.092;2023-11-22T18:38:33;2;2;
64229;PMS5003;50547;49.498;0.092;2023-11-22T18:41:03;2;2;
64229;PMS5003;50547;49.498;0.092;2023-11-22T18:43:32;2;2;
64229;PMS5003;50547;49.498;0.092;2023-11-22T18:46:01;2;2;
64229;PMS5003;50547;49.498;0.092;2023-11-22T18:48:31;3;3;
64229;PMS5003;50547;49.498;0.092;2023-11-22T18:51:00;2;2;
64229;PMS5003;50547;49.498;0.092;2023-11-22T18:53:29;2;2;
64229;PMS5003;50547;49.498;0.092;2023-11-22T18:56:03;2;2;
64229;PMS5003;50547;49.498;0.092;2023-11-22T18:58:34;3;3;
64229;PMS5003;50547;49.498;0.092;2023-11-22T19:01:03;2;2;
64229;PMS5003;50547;49.498;0.092;2023-11-22T19:03:33;2;2;
64229;PMS5003;50547;49.498;0.092;2023-11-22T19:05:59;5;5;
64229;PMS5003;50547;49.498;0.092;2023-11-22T19:08:25;3;3;
64229;PMS5003;50547;49.498;0.092;2023-11-22T19:10:54;5;5;
64229;PMS5003;50547;49.498;0.092;2023-11-22T19:13:23;4;4;
64229;PMS5003;50547;49.498;0.092;2023-11-22T19:15:52;2;2;
64229;PMS5003;50547;49.498;0.092;2023-11-22T19:18:21;4;4;
64229;PMS5003;50547;49.498;0.092;2023-11-22T19:20:47;4;4;
64229;PMS5003;50547;49.498;0.092;2023-11-22T19:23:17;5;5;
64229;PMS5003;50547;49.498;0.092;2023-11-22T19:25:46;4;4;
64229;PMS5003;50547;49.498;0.092;2023-11-22T19:28:12;4;4;
64229;PMS5003;50547;49.498;0.092;2023-11-22T19:30:38;4;4;
64229;PMS5003;50547;49.498;0.092;2023-11-22T19:33:07;2;2;
64229;PMS5003;50547;49.498;0.092;2023-11-22T19:35:36;3;3;
64229;PMS5003;50547;49.498;0.092;2023-11-22T19:38:05;5;5;
64229;PMS5003;50547;49.498;0.092;2023-11-22T19:40:46;5;5;
64229;PMS5003;50547;49.498;0.092;2023-11-22T19:43:15;5;5;
64229;PMS5003;50547;49.498;0.092;2023-11-22T19:45:44;4;4;
64229;PMS5003;50547;49.498;0.092;2023-11-22T19:48:13;4;4;
64229;PMS5003;50547;49.498;0.092;2023-11-22T19:50:42;4;4;
64229;PMS5003;50547;49.498;0.092;2023-11-22T19:53:12;5;5;
64229;PMS5003;50547;49.498;0.092;2023-11-22T19:55:41;5;5;
64229;PMS5003;50547;49.498;0.092;2023-11-22T19:58:10;7;7;
64229;PMS5003;50547;49.498;0.092;2023-11-22T20:00:39;5;5;
64229;PMS5003;50547;49.498;0.092;2023-11-22T20:03:08;5;5;
64229;PMS5003;50547;49.498;0.092;2023-11-22T20:05:37;5;5;
64229;PMS5003;50547;49.498;0.092;2023-11-22T20:08:07;4;4;
64229;PMS5003;50547;49.498;0.092;2023-11-22T20:10:36;5;5;
64229;PMS5003;50547;49.498;0.092;2023-11-22T20:13:03;4;4;
64229;PMS5003;50547;49.498;0.092;2023-11-22T20:15:32;6;6;
64229;PMS5003;50547;49.498;0.092;2023-11-22T20:18:01;5;5;
64229;PMS5003;50547;49.498;0.092;2023-11-22T20:20:30;5;5;
64229;PMS5003;50547;49.498;0.092;2023-11-22T20:22:59;4;4;
64229;PMS5003;50547;49.498;0.092;2023-11-22T20:25:28;5;5;
64229;PMS5003;50547;49.498;0.092;2023-11-22T20:27:57;6;6;
64229;PMS5003;50547;49.498;0.092;2023-11-22T20:30:27;6;6;
64229;PMS5003;50547;49.498;0.092;2023-11-22T20:32:53;5;5;
64229;PMS5003;50547;49.498;0.092;2023-11-22T20:35:22;5;5;
64229;PMS5003;50547;49.498;0.092;2023-11-22T20:37:51;7;7;
64229;PMS5003;50547;49.498;0.092;2023-11-22T20:40:20;7;7;
64229;PMS5003;50547;49.498;0.092;2023-11-22T20:42:49;5;5;
64229;PMS5003;50547;49.498;0.092;2023-11-22T20:45:18;5;5;
64229;PMS5003;50547;49.498;0.092;2023-11-22T20:47:47;8;8;
64229;PMS5003;50547;49.498;0.092;2023-11-22T20:50:17;5;5;
64229;PMS5003;50547;49.498;0.092;2023-11-22T20:52:46;5;5;
64229;PMS5003;50547;49.498;0.092;2023-11-22T20:55:15;5;5;
64229;PMS5003;50547;49.498;0.092;2023-11-22T20:57:44;7;7;
64229;PMS5003;50547;49.498;0.092;2023-11-22T21:00:14;5;5;
64229;PMS5003;50547;49.498;0.092;2023-11-22T21:02:43;6;6;
64229;PMS5003;50547;49.498;0.092;2023-11-22T21:05:12;7;7;
64229;PMS5003;50547;49.498;0.092;2023-11-22T21:07:41;5;5;
64229;PMS5003;50547;49.498;0.092;2023-11-22T21:10:11;5;5;
64229;PMS5003;50547;49.498;0.092;2023-11-22T21:12:40;8;8;
64229;PMS5003;50547;49.498;0.092;2023-11-22T21:15:09;9;9;
64229;PMS5003;50547;49.498;0.092;2023-11-22T21:17:38;6;6;
64229;PMS5003;50547;49.498;0.092;2023-11-22T21:20:08;5;5;
64229;PMS5003;50547;49.498;0.092;2023-11-22T21:22:34;5;5;
64229;PMS5003;50547;49.498;0.092;2023-11-22T21:25:04;5;5;
64229;PMS5003;50547;49.498;0.092;2023-11-22T21:27:34;6;6;
64229;PMS5003;50547;49.498;0.092;2023-11-22T21:30:03;10;10;
64229;PMS5003;50547;49.498;0.092;2023-11-22T21:32:33;7;7;
64229;PMS5003;50547;49.498;0.092;2023-11-22T21:35:02;7;7;
64229;PMS5003;50547;49.498;0.092;2023-11-22T21:37:31;7;7;
64229;PMS5003;50547;49.498;0.092;2023-11-22T21:40:00;5;5;
64229;PMS5003;50547;49.498;0.092;2023-11-22T21:42:30;7;7;
64229;PMS5003;50547;49.498;0.092;2023-11-22T21:44:59;5;5;
64229;PMS5003;50547;49.498;0.092;2023-11-22T21:47:28;4;4;
64229;PMS5003;50547;49.498;0.092;2023-11-22T21:49:57;7;7;
64229;PMS5003;50547;49.498;0.092;2023-11-22T21:52:26;4;4;
64229;PMS5003;50547;49.498;0.092;2023-11-22T21:54:55;6;6;
64229;PMS5003;50547;49.498;0.092;2023-11-22T21:57:24;4;4;
64229;PMS5003;50547;49.498;0.092;2023-11-22T21:59:53;6;6;
64229;PMS5003;50547;49.498;0.092;2023-11-22T22:02:22;8;8;
64229;PMS5003;50547;49.498;0.092;2023-11-22T22:04:51;6;6;
64229;PMS5003;50547;49.498;0.092;2023-11-22T22:07:21;5;5;
64229;PMS5003;50547;49.498;0.092;2023-11-22T22:09:50;5;5;
64229;PMS5003;50547;49.498;0.092;2023-11-22T22:12:19;5;5;
64229;PMS5003;50547;49.498;0.092;2023-11-22T22:14:48;4;4;
64229;PMS5003;50547;49.498;0.092;2023-11-22T22:17:17;4;4;
64229;PMS5003;50547;49.498;0.092;2023-11-22T22:19:46;5;5;
64229;PMS5003;50547;49.498;0.092;2023-11-22T22:22:15;5;5;
64229;PMS5003;50547;49.498;0.092;2023-11-22T22:24:44;4;4;
64229;PMS5003;50547;49.498;0.092;2023-11-22T22:27:13;5;5;
64229;PMS5003;50547;49.498;0.092;2023-11-22T22:29:42;5;5;
64229;PMS5003;50547;49.498;0.092;2023-11-22T22:32:12;4;4;
64229;PMS5003;50547;49.498;0.092;2023-11-22T22:34:42;7;7;
64229;PMS5003;50547;49.498;0.092;2023-11-22T22:37:11;7;7;
64229;PMS5003;50547;49.498;0.092;2023-11-22T22:39:37;6;6;
64229;PMS5003;50547;49.498;0.092;2023-11-22T22:42:06;5;5;
64229;PMS5003;50547;49.498;0.092;2023-11-22T22:44:35;5;5;
64229;PMS5003;50547;49.498;0.092;2023-11-22T22:47:02;5;5;
64229;PMS5003;50547;49.498;0.092;2023-11-22T22:49:31;6;6;
64229;PMS5003;50547;49.498;0.092;2023-11-22T22:52:01;5;5;
64229;PMS5003;50547;49.498;0.092;2023-11-22T22:54:30;5;5;
64229;PMS5003;50547;49.498;0.092;2023-11-22T22:56:59;5;5;
64229;PMS5003;50547;49.498;0.092;2023-11-22T22:59:29;5;5;
64229;PMS5003;50547;49.498;0.092;2023-11-22T23:01:58;7;7;
64229;PMS5003;50547;49.498;0.092;2023-11-22T23:04:27;4;4;
64229;PMS5003;50547;49.498;0.092;2023-11-22T23:06:53;5;5;
64229;PMS5003;50547;49.498;0.092;2023-11-22T23:09:22;4;4;
64229;PMS5003;50547;49.498;0.092;2023-11-22T23:11:49;4;4;
64229;PMS5003;50547;49.498;0.092;2023-11-22T23:14:18;4;4;
64229;PMS5003;50547;49.498;0.092;2023-11-22T23:16:47;4;4;
64229;PMS5003;50547;49.498;0.092;2023-11-22T23:19:13;7;7;
64229;PMS5003;50547;49.498;0.092;2023-11-22T23:21:42;7;7;
64229;PMS5003;50547;49.498;0.092;2023-11-22T23:24:11;6;6;
64229;PMS5003;50547;49.498;0.092;2023-11-22T23:26:41;7;7;
64229;PMS5003;50547;49.498;0.092;2023-11-22T23:29:10;4;4;
64229;PMS5003;50547;49.498;0.092;2023-11-22T23:31:39;4;4;
64229;PMS5003;50547;49.498;0.092;2023-11-22T23:34:05;4;4;
64229;PMS5003;50547;49.498;0.092;2023-11-22T23:36:34;5;5;
64229;PMS5003;50547;49.498;0.092;2023-11-22T23:39:03;5;5;
64229;PMS5003;50547;49.498;0.092;2023-11-22T23:41:29;5;5;
64229;PMS5003;50547;49.498;0.092;2023-11-22T23:43:58;4;4;
64229;PMS5003;50547;49.498;0.092;2023-11-22T23:46:27;5;5;
64229;PMS5003;50547;49.498;0.092;2023-11-22T23:48:53;5;5;
64229;PMS5003;50547;49.498;0.092;2023-11-22T23:51:22;7;7;
64229;PMS5003;50547;49.498;0.092;2023-11-22T23:53:51;4;4;
64229;PMS5003;50547;49.498;0.092;2023-11-22T23:56:17;5;5;
64229;PMS5003;50547;49.498;0.092;2023-11-22T23:58:46;5;5;
